createdAt,value
2022-09-29T00:01:59.752Z,85.6
2022-09-29T00:02:59.714Z,85.6
2022-09-29T00:03:59.631Z,85.6
2022-09-29T00:04:59.645Z,85.5
2022-09-29T00:06:59.639Z,85.3
2022-09-29T00:07:59.647Z,85.2
2022-09-29T00:08:59.626Z,85
2022-09-29T00:10:59.625Z,84.8
2022-09-29T00:11:59.627Z,84.6
2022-09-29T00:12:59.630Z,84.6
2022-09-29T00:13:59.629Z,85.4
2022-09-29T00:15:59.691Z,86.8
2022-09-29T00:16:59.633Z,86.7
2022-09-29T00:18:13.197Z,86.6
2022-09-29T00:18:59.670Z,86.5
2022-09-29T00:19:59.634Z,86.9
2022-09-29T00:20:59.635Z,86.9
2022-09-29T00:21:59.628Z,86.6
2022-09-29T00:22:59.646Z,87.1
2022-09-29T00:24:59.633Z,87.3
2022-09-29T00:25:59.632Z,87.3
2022-09-29T00:26:59.632Z,87.3
2022-09-29T00:27:59.650Z,86.9
2022-09-29T00:28:59.634Z,86.8
2022-09-29T00:29:59.633Z,86.5
2022-09-29T00:31:59.723Z,86.1
2022-09-29T00:32:59.634Z,85.7
2022-09-29T00:33:59.636Z,85.4
2022-09-29T00:36:59.639Z,84.5
2022-09-29T00:37:59.634Z,84.3
2022-09-29T00:38:59.630Z,84.2
2022-09-29T00:39:59.651Z,84.1
2022-09-29T00:40:59.719Z,84.8
2022-09-29T00:43:59.630Z,86.2
2022-09-29T00:44:59.661Z,87.1
2022-09-29T00:45:59.724Z,87.1
2022-09-29T00:48:59.626Z,89
2022-09-29T00:52:59.626Z,90.2
2022-09-29T00:53:59.628Z,90.2
2022-09-29T00:55:59.631Z,90.3
2022-09-29T00:57:59.626Z,90
2022-09-29T00:58:59.663Z,89.9
2022-09-29T00:59:59.634Z,89.9
2022-09-29T01:00:59.773Z,89.8
2022-09-29T01:01:59.682Z,89.6
2022-09-29T01:03:59.656Z,89.3
2022-09-29T01:04:59.634Z,89.4
2022-09-29T01:05:59.628Z,89.1
2022-09-29T01:06:59.627Z,88.9
2022-09-29T01:07:59.630Z,88.5
2022-09-29T01:08:59.628Z,88.3
2022-09-29T01:11:59.631Z,87.1
2022-09-29T01:12:59.624Z,86.9
2022-09-29T01:13:59.624Z,86.9
2022-09-29T01:14:59.631Z,86.6
2022-09-29T01:16:59.629Z,86.2
2022-09-29T01:18:59.666Z,85.8
2022-09-29T01:20:03.479Z,85.6
2022-09-29T01:20:59.624Z,85.6
2022-09-29T01:21:59.644Z,85.4
2022-09-29T01:22:59.634Z,85.4
2022-09-29T01:25:59.632Z,85.4
2022-09-29T01:26:59.637Z,85.3
2022-09-29T01:27:59.625Z,85.4
2022-09-29T01:28:59.646Z,85.3
2022-09-29T01:30:59.649Z,84.8
2022-09-29T01:31:59.623Z,84.8
2022-09-29T01:34:59.646Z,85
2022-09-29T01:35:59.633Z,85.1
2022-09-29T01:36:59.629Z,85
2022-09-29T01:39:59.633Z,84.9
2022-09-29T01:40:59.694Z,84.8
2022-09-29T01:41:59.624Z,84.8
2022-09-29T01:42:59.622Z,84.9
2022-09-29T01:43:59.636Z,84.7
2022-09-29T01:46:59.626Z,84.6
2022-09-29T01:47:59.626Z,84.6
2022-09-29T01:48:59.628Z,84.6
2022-09-29T01:49:59.626Z,84.4
2022-09-29T01:50:59.619Z,84.3
2022-09-29T01:51:59.625Z,84.1
2022-09-29T01:52:59.629Z,84.2
2022-09-29T01:53:59.623Z,84.1
2022-09-29T01:55:59.628Z,83.5
2022-09-29T01:56:59.633Z,83.7
2022-09-29T01:57:59.618Z,83.6
2022-09-29T01:58:59.622Z,83.5
2022-09-29T02:00:59.647Z,83.5
2022-09-29T02:02:00.931Z,83.5
2022-09-29T02:02:59.649Z,83.3
2022-09-29T02:04:59.629Z,83.4
2022-09-29T02:06:59.623Z,82.9
2022-09-29T02:07:59.626Z,83.1
2022-09-29T02:09:59.632Z,82.9
2022-09-29T02:11:59.622Z,83.2
2022-09-29T02:12:59.621Z,83.2
2022-09-29T02:14:59.627Z,83.5
2022-09-29T02:15:59.642Z,83.8
2022-09-29T02:16:59.618Z,84
2022-09-29T02:17:59.628Z,84.1
2022-09-29T02:19:59.619Z,84
2022-09-29T02:20:59.634Z,84.1
2022-09-29T02:21:59.624Z,83.9
2022-09-29T02:22:59.623Z,83.8
2022-09-29T02:23:59.630Z,83.9
2022-09-29T02:25:59.620Z,84.1
2022-09-29T02:27:59.635Z,84.1
2022-09-29T02:30:59.625Z,84
2022-09-29T02:33:59.627Z,84
2022-09-29T02:34:59.627Z,83.9
2022-09-29T02:35:59.621Z,83.9
2022-09-29T02:37:59.629Z,84
2022-09-29T02:38:59.626Z,83.8
2022-09-29T02:39:59.624Z,83.6
2022-09-29T02:40:59.626Z,83.7
2022-09-29T02:41:59.626Z,83.8
2022-09-29T02:42:59.618Z,83.6
2022-09-29T02:43:59.627Z,83.5
2022-09-29T02:44:59.617Z,83.5
2022-09-29T02:46:59.622Z,83.5
2022-09-29T02:48:59.635Z,83.3
2022-09-29T02:53:59.618Z,83.1
2022-09-29T02:54:59.625Z,83.1
2022-09-29T02:55:59.622Z,83
2022-09-29T02:56:59.628Z,83
2022-09-29T02:57:59.628Z,82.8
2022-09-29T02:59:59.666Z,82.6
2022-09-29T03:00:59.734Z,82.6
2022-09-29T03:01:59.619Z,82.6
2022-09-29T03:02:59.627Z,82.6
2022-09-29T03:04:59.648Z,82.4
2022-09-29T03:05:59.632Z,82.4
2022-09-29T03:06:59.624Z,82.4
2022-09-29T03:07:59.645Z,82.4
2022-09-29T03:09:59.615Z,82.3
2022-09-29T03:10:59.630Z,82.2
2022-09-29T03:12:59.626Z,82.2
2022-09-29T03:13:59.621Z,82.3
2022-09-29T03:14:59.620Z,82.2
2022-09-29T03:15:59.689Z,82.1
2022-09-29T03:16:59.620Z,82.1
2022-09-29T03:17:59.626Z,82.1
2022-09-29T03:18:59.623Z,82
2022-09-29T03:20:59.629Z,82.2
2022-09-29T03:21:59.619Z,82.3
2022-09-29T03:22:59.621Z,82.4
2022-09-29T03:23:59.673Z,82.3
2022-09-29T03:25:59.627Z,82.5
2022-09-29T03:26:59.621Z,82.5
2022-09-29T03:27:59.616Z,82.3
2022-09-29T03:28:59.614Z,82.4
2022-09-29T03:30:59.669Z,82.7
2022-09-29T03:31:59.617Z,82.8
2022-09-29T03:33:59.622Z,82.8
2022-09-29T03:34:59.611Z,82.7
2022-09-29T03:35:59.620Z,82.7
2022-09-29T03:36:59.630Z,82.6
2022-09-29T03:38:59.630Z,82.4
2022-09-29T03:39:59.623Z,82.5
2022-09-29T03:40:59.719Z,82.7
2022-09-29T03:41:59.616Z,82.5
2022-09-29T03:43:59.619Z,82.7
2022-09-29T03:45:59.682Z,82.4
2022-09-29T03:46:59.619Z,82.5
2022-09-29T03:48:59.631Z,82.3
2022-09-29T03:49:59.618Z,82.4
2022-09-29T03:51:59.653Z,82.3
2022-09-29T03:52:59.623Z,82.2
2022-09-29T03:53:59.628Z,82.3
2022-09-29T03:54:59.655Z,82.4
2022-09-29T03:56:59.621Z,82.6
2022-09-29T03:57:59.620Z,82.7
2022-09-29T03:59:59.621Z,82.7
2022-09-29T04:00:59.734Z,82.5
2022-09-29T04:01:59.677Z,82.6
2022-09-29T04:02:59.625Z,82.7
2022-09-29T04:04:59.613Z,82.7
2022-09-29T04:05:59.616Z,82.5
2022-09-29T04:06:59.615Z,82.3
2022-09-29T04:07:59.617Z,82.2
2022-09-29T04:08:59.618Z,82.1
2022-09-29T04:09:59.625Z,81.9
2022-09-29T04:10:59.614Z,81.8
2022-09-29T04:12:59.622Z,81.6
2022-09-29T04:14:00.956Z,81.6
2022-09-29T04:14:59.631Z,81.6
2022-09-29T04:17:59.625Z,81.3
2022-09-29T04:18:59.618Z,81.3
2022-09-29T04:19:59.642Z,81.5
2022-09-29T04:20:59.616Z,81.7
2022-09-29T04:22:59.629Z,82
2022-09-29T04:23:59.634Z,82.1
2022-09-29T04:24:59.629Z,82.1
2022-09-29T04:25:59.657Z,82.3
2022-09-29T04:26:59.630Z,82.3
2022-09-29T04:27:59.623Z,82.5
2022-09-29T04:28:59.635Z,82.8
2022-09-29T04:29:59.623Z,82.7
2022-09-29T04:30:59.621Z,82.8
2022-09-29T04:31:59.718Z,82.8
2022-09-29T04:32:59.670Z,82.9
2022-09-29T04:33:59.626Z,82.6
2022-09-29T04:34:59.622Z,82.6
2022-09-29T04:35:59.611Z,82.7
2022-09-29T04:36:59.622Z,82.8
2022-09-29T04:39:59.616Z,82.9
2022-09-29T04:40:59.736Z,82.8
2022-09-29T04:41:59.615Z,82.7
2022-09-29T04:42:59.612Z,82.7
2022-09-29T04:43:59.614Z,82.5
2022-09-29T04:44:59.621Z,82.5
2022-09-29T04:45:59.685Z,82.6
2022-09-29T04:47:59.618Z,82.5
2022-09-29T04:48:59.617Z,82.2
2022-09-29T04:49:59.620Z,82.3
2022-09-29T04:52:59.616Z,82.4
2022-09-29T04:53:59.619Z,82.4
2022-09-29T04:54:59.623Z,82.3
2022-09-29T04:55:59.640Z,82.4
2022-09-29T04:56:59.644Z,82.4
2022-09-29T04:57:59.646Z,82.5
2022-09-29T04:59:59.613Z,82.5
2022-09-29T05:00:59.689Z,82.7
2022-09-29T05:01:59.667Z,82.6
2022-09-29T05:02:59.611Z,83.9
2022-09-29T05:03:59.619Z,83.9
2022-09-29T05:05:59.618Z,83.2
2022-09-29T05:06:59.615Z,83
2022-09-29T05:08:59.618Z,83.1
2022-09-29T05:10:59.619Z,83.5
2022-09-29T05:11:59.621Z,83.9
2022-09-29T05:13:59.623Z,83.9
2022-09-29T05:14:59.622Z,83.7
2022-09-29T05:15:59.665Z,83.7
2022-09-29T05:16:59.619Z,83.6
2022-09-29T05:17:59.615Z,83.4
2022-09-29T05:18:59.617Z,83.2
2022-09-29T05:19:59.617Z,83.3
2022-09-29T05:21:59.615Z,83.3
2022-09-29T05:22:59.610Z,83.4
2022-09-29T05:23:59.614Z,83.2
2022-09-29T05:24:59.610Z,83.2
2022-09-29T05:25:59.612Z,83.2
2022-09-29T05:27:59.637Z,83.2
2022-09-29T05:28:59.610Z,83.1
2022-09-29T05:29:59.617Z,83.1
2022-09-29T05:30:59.612Z,83
2022-09-29T05:31:59.756Z,82.8
2022-09-29T05:33:59.617Z,82.5
2022-09-29T05:34:59.606Z,82.4
2022-09-29T05:35:59.613Z,82.2
2022-09-29T05:36:59.618Z,82.2
2022-09-29T05:37:59.612Z,82
2022-09-29T05:38:59.614Z,81.8
2022-09-29T05:39:59.618Z,81.7
2022-09-29T05:42:59.619Z,81.9
2022-09-29T05:43:59.607Z,82.2
2022-09-29T05:45:59.661Z,82.8
2022-09-29T05:46:59.621Z,83
2022-09-29T05:48:59.609Z,83.7
2022-09-29T05:49:59.609Z,83.8
2022-09-29T05:50:59.614Z,84.1
2022-09-29T05:51:59.608Z,84.3
2022-09-29T05:53:59.622Z,84.4
2022-09-29T05:54:59.649Z,84.4
2022-09-29T05:55:59.618Z,84.5
2022-09-29T05:57:00.137Z,84.5
2022-09-29T05:59:59.611Z,84.1
2022-09-29T06:01:59.711Z,83.7
2022-09-29T06:02:59.624Z,83.5
2022-09-29T06:03:59.619Z,82.9
2022-09-29T06:04:59.615Z,82.6
2022-09-29T06:05:59.619Z,82.9
2022-09-29T06:06:59.680Z,83
2022-09-29T06:07:59.629Z,83
2022-09-29T06:08:59.618Z,82.8
2022-09-29T06:09:59.610Z,82.6
2022-09-29T06:10:59.644Z,82.7
2022-09-29T06:12:59.612Z,82.5
2022-09-29T06:14:59.629Z,82.1
2022-09-29T06:15:59.634Z,82
2022-09-29T06:17:59.732Z,81.6
2022-09-29T06:18:59.609Z,81.3
2022-09-29T06:19:59.604Z,81
2022-09-29T06:20:59.609Z,81
2022-09-29T06:22:59.616Z,81
2022-09-29T06:23:59.601Z,80.8
2022-09-29T06:24:59.614Z,80.7
2022-09-29T06:25:59.645Z,80.6
2022-09-29T06:26:59.611Z,80.3
2022-09-29T06:27:59.610Z,79.9
2022-09-29T06:28:59.616Z,79
2022-09-29T06:29:59.654Z,78.8
2022-09-29T06:30:59.615Z,78.3
2022-09-29T06:31:59.645Z,78.3
2022-09-29T06:33:59.615Z,77.1
2022-09-29T06:34:59.618Z,77
2022-09-29T06:35:59.662Z,76.4
2022-09-29T06:36:59.607Z,76
2022-09-29T06:39:59.613Z,75.7
2022-09-29T06:40:59.655Z,75.7
2022-09-29T06:41:59.613Z,75.6
2022-09-29T06:42:59.617Z,75.7
2022-09-29T06:43:59.606Z,76
2022-09-29T06:44:59.613Z,76
2022-09-29T06:46:59.631Z,76.4
2022-09-29T06:47:59.611Z,76.4
2022-09-29T06:48:59.634Z,76.6
2022-09-29T06:50:02.307Z,76.5
2022-09-29T06:52:01.047Z,76.3
2022-09-29T06:53:04.247Z,76
2022-09-29T06:54:59.614Z,75.8
2022-09-29T06:55:59.613Z,75.6
2022-09-29T06:58:03.846Z,75.7
2022-09-29T06:59:59.673Z,75.4
2022-09-29T07:00:59.688Z,75.4
2022-09-29T07:02:59.615Z,74.8
2022-09-29T07:03:59.617Z,74.3
2022-09-29T07:06:18.663Z,71.3
2022-09-29T07:08:01.319Z,68.8
2022-09-29T07:08:59.611Z,68.7
2022-09-29T07:10:59.614Z,68.1
2022-09-29T07:11:59.614Z,67.8
2022-09-29T07:12:59.620Z,67.2
2022-09-29T07:13:59.618Z,67.2
2022-09-29T07:14:59.617Z,66.9
2022-09-29T07:15:59.626Z,66.2
2022-09-29T07:17:59.629Z,65.8
2022-09-29T07:18:59.619Z,64.7
2022-09-29T07:19:59.639Z,65
2022-09-29T07:20:59.619Z,65.5
2022-09-29T07:21:59.609Z,64.7
2022-09-29T07:24:02.163Z,63.6
2022-09-29T07:24:59.617Z,63
2022-09-29T07:26:59.607Z,61.3
2022-09-29T07:28:59.807Z,59.6
2022-09-29T07:30:03.941Z,59.7
2022-09-29T07:31:59.787Z,59.7
2022-09-29T07:33:59.650Z,60.9
2022-09-29T07:34:59.634Z,61.2
2022-09-29T07:36:59.618Z,61.6
2022-09-29T07:38:59.626Z,61
2022-09-29T07:39:59.617Z,61.4
2022-09-29T07:40:59.731Z,61
2022-09-29T07:41:59.612Z,60.8
2022-09-29T07:42:59.621Z,60.5
2022-09-29T07:44:59.633Z,58.8
2022-09-29T07:45:59.741Z,57.7
2022-09-29T07:47:59.620Z,56.9
2022-09-29T07:48:59.633Z,55.6
2022-09-29T07:49:59.633Z,54.9
2022-09-29T07:50:59.614Z,54.3
2022-09-29T07:53:59.630Z,51.6
2022-09-29T07:54:59.623Z,50.2
2022-09-29T07:55:59.628Z,50.5
2022-09-29T07:58:59.635Z,49.3
2022-09-29T07:59:59.627Z,49.7
2022-09-29T08:00:59.730Z,51
2022-09-29T08:01:59.648Z,51.4
2022-09-29T08:02:59.758Z,51.5
2022-09-29T08:03:59.741Z,51.5
2022-09-29T08:05:03.257Z,52.3
2022-09-29T08:06:59.625Z,52.5
2022-09-29T08:07:59.614Z,54.6
2022-09-29T08:10:13.730Z,54.8
2022-09-29T08:10:59.622Z,56.2
2022-09-29T08:12:59.658Z,56.7
2022-09-29T08:13:59.732Z,56.8
2022-09-29T08:14:59.615Z,56.8
2022-09-29T08:15:59.646Z,56.7
2022-09-29T08:16:59.654Z,55.3
2022-09-29T08:17:59.626Z,54.3
2022-09-29T08:19:59.621Z,52.5
2022-09-29T08:21:02.910Z,51.4
2022-09-29T08:21:59.630Z,50.7
2022-09-29T08:22:59.625Z,50.3
2022-09-29T08:24:59.629Z,47.8
2022-09-29T08:26:01.915Z,47
2022-09-29T08:27:59.626Z,48.3
2022-09-29T08:29:07.568Z,47.1
2022-09-29T08:29:59.622Z,47.8
2022-09-29T08:32:59.639Z,47.3
2022-09-29T08:33:59.654Z,47.3
2022-09-29T08:34:59.629Z,47
2022-09-29T08:35:59.642Z,45.9
2022-09-29T08:36:59.627Z,46.2
2022-09-29T08:37:59.632Z,45.1
2022-09-29T08:38:59.625Z,45.6
2022-09-29T08:39:59.650Z,44.4
2022-09-29T08:40:59.696Z,43.6
2022-09-29T08:41:59.625Z,43.7
2022-09-29T08:42:59.637Z,44.2
2022-09-29T08:45:12.946Z,43.2
2022-09-29T08:46:01.061Z,41.8
2022-09-29T08:47:59.790Z,38.9
2022-09-29T08:48:59.628Z,37.5
2022-09-29T08:49:59.625Z,37.6
2022-09-29T08:50:59.642Z,35.8
2022-09-29T08:52:59.635Z,33.2
2022-09-29T08:55:01.039Z,33
2022-09-29T08:55:59.632Z,32.4
2022-09-29T08:56:59.652Z,30.6
2022-09-29T08:57:59.628Z,30.8
2022-09-29T08:58:59.630Z,29.9
2022-09-29T09:00:59.662Z,29.3
2022-09-29T09:01:59.695Z,28.6
2022-09-29T09:02:59.683Z,27.3
2022-09-29T09:03:59.636Z,28.4
2022-09-29T09:05:59.635Z,27.4
2022-09-29T09:06:59.639Z,27.2
2022-09-29T09:08:02.023Z,27.2
2022-09-29T09:08:59.642Z,27.3
2022-09-29T09:10:59.637Z,26.3
2022-09-29T09:11:59.649Z,24.9
2022-09-29T09:13:59.637Z,24.8
2022-09-29T09:14:59.639Z,24.6
2022-09-29T09:16:59.717Z,24.7
2022-09-29T09:17:59.657Z,25
2022-09-29T09:21:59.645Z,24
2022-09-29T09:22:59.647Z,23
2022-09-29T09:24:00.855Z,23.5
2022-09-29T09:24:59.640Z,23.9
2022-09-29T09:25:59.669Z,22.9
2022-09-29T09:26:59.648Z,22.6
2022-09-29T09:27:59.655Z,23.1
2022-09-29T09:28:59.646Z,22.6
2022-09-29T09:29:59.650Z,22.1
2022-09-29T09:30:59.720Z,21.9
2022-09-29T09:31:59.666Z,21.4
2022-09-29T09:32:59.655Z,20.9
2022-09-29T09:34:05.603Z,21.1
2022-09-29T09:35:08.510Z,20.9
2022-09-29T09:37:06.811Z,21.2
2022-09-29T09:37:59.649Z,20.3
2022-09-29T09:38:59.642Z,21.4
2022-09-29T09:39:59.651Z,22
2022-09-29T09:42:59.654Z,20.6
2022-09-29T09:43:59.660Z,20.3
2022-09-29T09:44:59.649Z,20.5
2022-09-29T09:46:00.518Z,20.1
2022-09-29T09:47:59.656Z,21.3
2022-09-29T09:48:59.652Z,20.8
2022-09-29T09:50:59.658Z,19.3
2022-09-29T09:52:59.660Z,20.3
2022-09-29T09:53:59.684Z,20.7
2022-09-29T09:55:59.662Z,21.6
2022-09-29T09:56:59.670Z,21.7
2022-09-29T09:57:59.676Z,22.3
2022-09-29T09:58:59.666Z,22.6
2022-09-29T09:59:59.661Z,22.6
2022-09-29T10:00:59.765Z,21.7
2022-09-29T10:01:59.739Z,21
2022-09-29T10:03:59.670Z,20.9
2022-09-29T10:04:59.660Z,20.8
2022-09-29T10:05:59.660Z,21.1
2022-09-29T10:06:59.694Z,21.1
2022-09-29T10:07:59.670Z,20.9
2022-09-29T10:08:59.710Z,21
2022-09-29T10:09:59.672Z,21.1
2022-09-29T10:11:59.689Z,22.3
2022-09-29T10:13:00.137Z,22.6
2022-09-29T10:13:59.667Z,22.9
2022-09-29T10:16:59.701Z,22
2022-09-29T10:17:59.673Z,22.1
2022-09-29T10:19:59.668Z,21.4
2022-09-29T10:20:59.675Z,21.9
2022-09-29T10:22:59.679Z,20.5
2022-09-29T10:23:59.679Z,19.9
2022-09-29T10:24:59.668Z,20.1
2022-09-29T10:25:59.671Z,19.5
2022-09-29T10:27:59.679Z,21.8
2022-09-29T10:28:59.681Z,22.9
2022-09-29T10:29:59.672Z,23.1
2022-09-29T10:30:59.808Z,23.8
2022-09-29T10:31:59.683Z,25.3
2022-09-29T10:32:59.699Z,25.2
2022-09-29T10:33:59.669Z,25.6
2022-09-29T10:34:59.675Z,25.4
2022-09-29T10:35:59.676Z,25.8
2022-09-29T10:36:59.690Z,25.6
2022-09-29T10:39:03.421Z,26.4
2022-09-29T10:40:59.686Z,26.5
2022-09-29T10:41:59.777Z,26
2022-09-29T10:43:59.683Z,25.8
2022-09-29T10:44:59.686Z,26
2022-09-29T10:45:59.763Z,25.9
2022-09-29T10:46:59.689Z,26
2022-09-29T10:48:59.687Z,26
2022-09-29T10:49:59.674Z,25.6
2022-09-29T10:51:59.681Z,26.2
2022-09-29T10:52:59.677Z,25.8
2022-09-29T10:53:59.704Z,25.7
2022-09-29T10:54:59.794Z,25.5
2022-09-29T10:55:59.712Z,26
2022-09-29T10:57:59.705Z,27.1
2022-09-29T10:59:03.163Z,27.8
2022-09-29T11:00:59.721Z,28.7
2022-09-29T11:02:59.687Z,28.2
2022-09-29T11:03:59.717Z,28.1
2022-09-29T11:04:59.687Z,28
2022-09-29T11:05:59.688Z,28.1
2022-09-29T11:06:59.695Z,27.7
2022-09-29T11:08:59.789Z,27.5
2022-09-29T11:09:59.691Z,27.1
2022-09-29T11:12:02.261Z,27.2
2022-09-29T11:12:59.703Z,27.3
2022-09-29T11:13:59.693Z,27.7
2022-09-29T11:14:59.692Z,27.1
2022-09-29T11:16:59.783Z,26.4
2022-09-29T11:17:59.761Z,25.9
2022-09-29T11:18:59.705Z,26.1
2022-09-29T11:19:59.702Z,27.5
2022-09-29T11:21:59.699Z,28.2
2022-09-29T11:22:59.701Z,28.7
2022-09-29T11:23:59.694Z,29.4
2022-09-29T11:24:59.731Z,30.3
2022-09-29T11:25:59.707Z,30.3
2022-09-29T11:26:59.720Z,29.9
2022-09-29T11:27:59.711Z,29.9
2022-09-29T11:29:59.702Z,28.7
2022-09-29T11:30:59.753Z,27.9
2022-09-29T11:32:59.708Z,28.5
2022-09-29T11:33:59.704Z,28.6
2022-09-29T11:34:59.701Z,29.6
2022-09-29T11:38:00.262Z,29.7
2022-09-29T11:38:59.695Z,30
2022-09-29T11:39:59.705Z,29.9
2022-09-29T11:42:59.707Z,29.8
2022-09-29T11:43:59.714Z,30.6
2022-09-29T11:44:59.710Z,29.8
2022-09-29T11:45:59.735Z,30.2
2022-09-29T11:46:59.704Z,30.8
2022-09-29T11:47:59.768Z,30.8
2022-09-29T11:48:59.702Z,31.4
2022-09-29T11:50:59.705Z,31.5
2022-09-29T11:52:59.726Z,32.7
2022-09-29T11:54:03.879Z,33
2022-09-29T11:54:59.706Z,33.6
2022-09-29T11:55:59.737Z,33.9
2022-09-29T11:56:59.713Z,33.9
2022-09-29T11:58:59.708Z,34
2022-09-29T11:59:59.704Z,33.6
2022-09-29T12:00:59.745Z,33.8
2022-09-29T12:01:59.782Z,34.8
2022-09-29T12:03:59.710Z,34.9
2022-09-29T12:04:59.729Z,34.9
2022-09-29T12:05:59.715Z,34.3
2022-09-29T12:06:59.713Z,34.3
2022-09-29T12:07:59.779Z,34.4
2022-09-29T12:12:22.050Z,34.8
2022-09-29T12:12:59.774Z,33.7
2022-09-29T12:13:59.743Z,33.5
2022-09-29T12:14:59.711Z,33.9
2022-09-29T12:15:59.715Z,33.8
2022-09-29T12:17:00.514Z,34.3
2022-09-29T12:19:59.726Z,34.7
2022-09-29T12:20:59.710Z,35
2022-09-29T12:21:59.715Z,34.9
2022-09-29T12:25:59.727Z,36.8
2022-09-29T12:27:59.721Z,37
2022-09-29T12:28:59.716Z,37.4
2022-09-29T12:30:59.792Z,38.2
2022-09-29T12:31:59.716Z,37.2
2022-09-29T12:32:59.714Z,37.3
2022-09-29T12:33:59.711Z,37.1
2022-09-29T12:35:59.715Z,36.8
2022-09-29T12:36:59.712Z,37.1
2022-09-29T12:38:59.727Z,36.9
2022-09-29T12:40:59.723Z,37.3
2022-09-29T12:41:59.739Z,37.4
2022-09-29T12:42:59.716Z,37.4
2022-09-29T12:43:59.718Z,38
2022-09-29T12:44:59.723Z,38.5
2022-09-29T12:46:59.730Z,38.2
2022-09-29T12:48:59.726Z,38.6
2022-09-29T12:49:59.777Z,38
2022-09-29T12:51:59.720Z,38.2
2022-09-29T12:52:59.806Z,38.2
2022-09-29T12:53:59.730Z,38
2022-09-29T12:54:59.816Z,38.8
2022-09-29T12:57:00.093Z,37.9
2022-09-29T12:57:59.751Z,37.8
2022-09-29T12:58:59.724Z,37.4
2022-09-29T13:01:59.720Z,38.5
2022-09-29T13:02:59.721Z,38.3
2022-09-29T13:03:59.726Z,38.2
2022-09-29T13:05:59.729Z,38
2022-09-29T13:07:59.754Z,38
2022-09-29T13:08:59.758Z,37.7
2022-09-29T13:10:59.726Z,37.7
2022-09-29T13:11:59.725Z,37.8
2022-09-29T13:12:59.750Z,37.4
2022-09-29T13:13:59.726Z,37.6
2022-09-29T13:14:59.794Z,37.5
2022-09-29T13:15:59.770Z,37.3
2022-09-29T13:16:59.750Z,37.4
2022-09-29T13:20:00.278Z,37.3
2022-09-29T13:21:00.017Z,37.9
2022-09-29T13:23:59.734Z,37.5
2022-09-29T13:25:00.004Z,37.4
2022-09-29T13:25:59.728Z,37.3
2022-09-29T13:27:00.005Z,37.5
2022-09-29T13:27:59.742Z,38.1
2022-09-29T13:29:59.733Z,37.5
2022-09-29T13:30:59.818Z,36.7
2022-09-29T13:31:59.732Z,37
2022-09-29T13:33:00.030Z,36.6
2022-09-29T13:34:59.734Z,36.3
2022-09-29T13:35:59.733Z,36.6
2022-09-29T13:36:59.731Z,37
2022-09-29T13:40:02.784Z,37.7
2022-09-29T13:40:59.736Z,38.3
2022-09-29T13:43:59.729Z,37.8
2022-09-29T13:44:59.741Z,37.3
2022-09-29T13:45:59.754Z,37.7
2022-09-29T13:47:59.731Z,37.4
2022-09-29T13:48:59.731Z,37.2
2022-09-29T13:49:59.739Z,37.5
2022-09-29T13:51:05.091Z,37.6
2022-09-29T13:51:59.740Z,37.6
2022-09-29T13:53:59.731Z,38.3
2022-09-29T13:54:59.749Z,37.4
2022-09-29T13:55:59.769Z,37.7
2022-09-29T13:57:00.014Z,37.5
2022-09-29T13:58:59.764Z,38.1
2022-09-29T13:59:59.756Z,38.7
2022-09-29T14:00:59.778Z,39.3
2022-09-29T14:01:59.741Z,39.3
2022-09-29T14:04:00.496Z,40.4
2022-09-29T14:04:59.753Z,41.2
2022-09-29T14:06:05.431Z,40.6
2022-09-29T14:07:00.481Z,40.4
2022-09-29T14:10:59.740Z,40.7
2022-09-29T14:11:59.734Z,40.9
2022-09-29T14:13:00.013Z,40.5
2022-09-29T14:13:59.740Z,40.1
2022-09-29T14:15:59.932Z,40.8
2022-09-29T14:16:59.730Z,40.7
2022-09-29T14:17:59.833Z,40.7
2022-09-29T14:18:59.831Z,41
2022-09-29T14:21:59.758Z,40.9
2022-09-29T14:22:59.834Z,40.3
2022-09-29T14:23:59.754Z,40.7
2022-09-29T14:27:59.740Z,40.5
2022-09-29T14:30:59.779Z,39.8
2022-09-29T14:33:59.756Z,40.8
2022-09-29T14:37:00.004Z,40.6
2022-09-29T14:37:59.777Z,41.2
2022-09-29T14:39:26.059Z,41
2022-09-29T14:42:59.739Z,41.5
2022-09-29T14:47:02.236Z,41.9
2022-09-29T14:47:59.767Z,41.6
2022-09-29T14:49:59.747Z,41.2
2022-09-29T14:51:59.755Z,41.4
2022-09-29T14:52:59.747Z,41.9
2022-09-29T14:53:59.755Z,41.4
2022-09-29T14:56:00.006Z,42.2
2022-09-29T14:57:00.099Z,42.3
2022-09-29T14:57:59.749Z,42.3
2022-09-29T14:58:59.747Z,42.2
2022-09-29T14:59:59.754Z,42.2
2022-09-29T15:00:59.744Z,42.4
2022-09-29T15:01:59.749Z,42.6
2022-09-29T15:03:23.594Z,42.4
2022-09-29T15:05:59.750Z,42.3
2022-09-29T15:08:59.888Z,42.2
2022-09-29T15:09:59.768Z,42.1
2022-09-29T15:10:59.751Z,42.4
2022-09-29T15:11:59.750Z,42.2
2022-09-29T15:12:59.760Z,42
2022-09-29T15:13:59.749Z,42.2
2022-09-29T15:14:59.997Z,42.2
2022-09-29T15:15:59.797Z,42
2022-09-29T15:17:00.098Z,41.8
2022-09-29T15:18:59.746Z,41.6
2022-09-29T15:20:59.755Z,42.2
2022-09-29T15:21:59.753Z,42.3
2022-09-29T15:22:59.749Z,42.1
2022-09-29T15:23:59.923Z,42.1
2022-09-29T15:27:00.806Z,42.5
2022-09-29T15:28:59.753Z,42.5
2022-09-29T15:29:59.773Z,42.8
2022-09-29T15:30:59.828Z,42.5
2022-09-29T15:31:59.745Z,42.8
2022-09-29T15:33:59.761Z,43.1
2022-09-29T15:34:59.753Z,43.5
2022-09-29T15:35:59.767Z,43.5
2022-09-29T15:36:59.782Z,43.3
2022-09-29T15:37:59.778Z,43.6
2022-09-29T15:39:59.765Z,44.7
2022-09-29T15:40:59.896Z,44.9
2022-09-29T15:41:59.752Z,45.5
2022-09-29T15:42:59.753Z,45.7
2022-09-29T15:44:59.758Z,46.2
2022-09-29T15:45:59.897Z,46.3
2022-09-29T15:47:00.109Z,46.5
2022-09-29T15:47:59.763Z,47
2022-09-29T15:48:59.778Z,46.9
2022-09-29T15:50:59.756Z,46.6
2022-09-29T15:51:59.801Z,46.8
2022-09-29T15:52:59.749Z,47
2022-09-29T15:53:59.773Z,46.5
2022-09-29T15:54:59.786Z,46.2
2022-09-29T15:55:59.767Z,45.6
2022-09-29T15:56:59.783Z,45.3
2022-09-29T15:57:59.760Z,45.1
2022-09-29T15:58:59.751Z,45.1
2022-09-29T15:59:59.776Z,44.9
2022-09-29T16:00:59.755Z,44.8
2022-09-29T16:02:01.570Z,44.8
2022-09-29T16:02:59.798Z,44.7
2022-09-29T16:04:59.757Z,44.8
2022-09-29T16:05:59.905Z,45.1
2022-09-29T16:07:00.083Z,45.4
2022-09-29T16:07:59.758Z,45.7
2022-09-29T16:08:59.844Z,45.7
2022-09-29T16:10:59.763Z,45.6
2022-09-29T16:11:59.821Z,45.3
2022-09-29T16:12:59.866Z,45.2
2022-09-29T16:13:59.755Z,45.3
2022-09-29T16:15:59.835Z,45.5
2022-09-29T16:16:59.778Z,45.3
2022-09-29T16:17:59.766Z,45.4
2022-09-29T16:18:59.798Z,45.7
2022-09-29T16:19:59.796Z,45.9
2022-09-29T16:21:59.759Z,46.1
2022-09-29T16:22:59.764Z,46.4
2022-09-29T16:23:59.764Z,46.3
2022-09-29T16:24:59.767Z,46.6
2022-09-29T16:25:59.769Z,46.5
2022-09-29T16:26:59.760Z,46.1
2022-09-29T16:27:59.780Z,46.2
2022-09-29T16:30:59.829Z,46.6
2022-09-29T16:31:59.771Z,46.9
2022-09-29T16:32:59.766Z,47.3
2022-09-29T16:33:59.830Z,47.9
2022-09-29T16:34:59.759Z,48
2022-09-29T16:37:59.868Z,48.7
2022-09-29T16:38:59.763Z,49
2022-09-29T16:39:59.836Z,49.3
2022-09-29T16:41:59.857Z,49.6
2022-09-29T16:42:59.774Z,49.6
2022-09-29T16:43:59.766Z,50
2022-09-29T16:44:59.767Z,50.4
2022-09-29T16:45:59.847Z,50.6
2022-09-29T16:47:00.489Z,50.9
2022-09-29T16:47:59.765Z,51.4
2022-09-29T16:49:59.769Z,51.6
2022-09-29T16:50:59.799Z,51.8
2022-09-29T16:51:59.768Z,52.2
2022-09-29T16:52:59.758Z,52.5
2022-09-29T16:54:59.761Z,52.9
2022-09-29T16:55:59.775Z,53.4
2022-09-29T16:57:59.859Z,53.2
2022-09-29T16:58:59.768Z,53.5
2022-09-29T16:59:59.778Z,53.4
2022-09-29T17:00:59.787Z,53.6
2022-09-29T17:02:02.739Z,53.9
2022-09-29T17:02:59.842Z,54.3
2022-09-29T17:03:59.776Z,54.4
2022-09-29T17:04:59.768Z,54.8
2022-09-29T17:05:59.768Z,54.9
2022-09-29T17:07:00.039Z,55
2022-09-29T17:07:59.768Z,55.4
2022-09-29T17:08:59.824Z,55.2
2022-09-29T17:09:59.772Z,55.2
2022-09-29T17:11:59.781Z,55.7
2022-09-29T17:12:59.770Z,56.1
2022-09-29T17:13:59.790Z,56.6
2022-09-29T17:14:59.787Z,56.4
2022-09-29T17:16:59.771Z,57
2022-09-29T17:17:59.773Z,57.1
2022-09-29T17:18:59.783Z,57.5
2022-09-29T17:19:59.780Z,57.4
2022-09-29T17:20:59.765Z,57.9
2022-09-29T17:21:59.794Z,57.9
2022-09-29T17:22:59.776Z,58.2
2022-09-29T17:24:59.773Z,58.5
2022-09-29T17:25:59.881Z,58.5
2022-09-29T17:27:01.651Z,58.8
2022-09-29T17:27:59.778Z,59
2022-09-29T17:29:59.771Z,59.6
2022-09-29T17:30:59.838Z,59.8
2022-09-29T17:31:59.777Z,60
2022-09-29T17:32:59.766Z,60.6
2022-09-29T17:33:59.770Z,61
2022-09-29T17:34:59.774Z,61.1
2022-09-29T17:35:59.768Z,61.5
2022-09-29T17:36:59.774Z,61.4
2022-09-29T17:37:59.767Z,61.8
2022-09-29T17:38:59.788Z,62.3
2022-09-29T17:39:59.782Z,62.5
2022-09-29T17:40:59.799Z,62.8
2022-09-29T17:41:59.957Z,63
2022-09-29T17:42:59.804Z,63.3
2022-09-29T17:43:59.776Z,63.8
2022-09-29T17:45:59.882Z,63.8
2022-09-29T17:47:11.231Z,63.8
2022-09-29T17:47:59.777Z,64.3
2022-09-29T17:48:59.772Z,64.9
2022-09-29T17:49:59.796Z,65.1
2022-09-29T17:50:59.805Z,65.2
2022-09-29T17:52:00.155Z,65.3
2022-09-29T17:53:59.775Z,65.4